createdAt,value
2022-08-08T00:02:04.132Z,100.00
2022-08-08T00:07:31.117Z,100.00
2022-08-08T00:12:48.458Z,100.00
2022-08-08T00:18:13.152Z,100.00
2022-08-08T00:23:42.848Z,100.00
2022-08-08T00:28:53.338Z,100.00
2022-08-08T00:34:47.129Z,100.00
2022-08-08T00:41:12.384Z,100.00
2022-08-08T00:46:16.449Z,100.00
2022-08-08T00:51:44.178Z,100.00
2022-08-08T00:57:07.763Z,100.00
2022-08-08T01:03:53.987Z,100.00
2022-08-08T01:08:28.665Z,100.00
2022-08-08T01:13:58.169Z,100.00
2022-08-08T01:19:52.108Z,100.00
2022-08-08T01:24:54.258Z,100.00
2022-08-08T01:30:17.662Z,100.00
2022-08-08T01:35:41.082Z,100.00
2022-08-08T01:40:56.805Z,100.00
2022-08-08T01:46:10.146Z,100.00
2022-08-08T01:52:29.363Z,100.00
2022-08-08T01:57:24.762Z,100.00
2022-08-08T02:03:07.520Z,100.00
2022-08-08T02:08:56.152Z,100.00
2022-08-08T02:14:07.497Z,100.00
2022-08-08T02:19:41.935Z,100.00
2022-08-08T02:24:55.703Z,100.00
2022-08-08T02:30:27.943Z,100.00
2022-08-08T02:36:03.896Z,100.00
2022-08-08T02:42:03.525Z,100.00
2022-08-08T02:47:25.660Z,100.00
2022-08-08T02:52:52.525Z,100.00
2022-08-08T02:58:18.608Z,100.00
2022-08-08T03:05:02.701Z,100.00
2022-08-08T03:09:45.112Z,100.00
2022-08-08T03:15:59.450Z,100.00
2022-08-08T03:20:25.021Z,100.00
2022-08-08T03:25:34.152Z,100.00
2022-08-08T03:31:07.597Z,100.00
2022-08-08T03:36:19.990Z,100.00
2022-08-08T03:42:12.745Z,100.00
2022-08-08T03:46:57.567Z,100.00
2022-08-08T03:52:00.745Z,100.00
2022-08-08T03:58:31.854Z,100.00
2022-08-08T04:02:46.926Z,100.00
2022-08-08T04:07:50.866Z,100.00
2022-08-08T04:12:55.067Z,100.00
2022-08-08T04:17:58.941Z,100.00
2022-08-08T04:23:03.334Z,100.00
2022-08-08T04:28:36.863Z,100.00
2022-08-08T04:33:29.246Z,100.00
2022-08-08T04:39:20.381Z,100.00
2022-08-08T04:44:14.735Z,100.00
2022-08-08T04:49:18.995Z,100.00
2022-08-08T04:54:38.118Z,100.00
2022-08-08T04:59:44.399Z,100.00
2022-08-08T05:04:47.027Z,100.00
2022-08-08T05:09:50.773Z,100.00
2022-08-08T05:14:53.220Z,100.00
2022-08-08T05:20:11.691Z,100.00
2022-08-08T05:25:21.614Z,99.26
2022-08-08T05:30:28.208Z,98.32
2022-08-08T05:35:35.012Z,98.35
2022-08-08T05:40:55.801Z,98.74
2022-08-08T05:46:07.731Z,98.42
2022-08-08T05:51:20.344Z,99.18
2022-08-08T05:56:28.156Z,98.37
2022-08-08T06:01:52.821Z,95.70
2022-08-08T06:07:00.309Z,92.78
2022-08-08T06:12:05.130Z,89.30
2022-08-08T06:17:09.399Z,86.40
2022-08-08T06:22:36.788Z,83.00
2022-08-08T06:28:05.094Z,81.09
2022-08-08T06:33:17.588Z,77.72
2022-08-08T06:38:42.855Z,76.39
2022-08-08T06:43:57.140Z,72.50
2022-08-08T06:49:02.746Z,69.62
2022-08-08T06:54:22.590Z,68.14
2022-08-08T06:59:27.300Z,66.07
2022-08-08T07:04:54.598Z,63.09
2022-08-08T07:10:12.709Z,61.11
2022-08-08T07:15:31.950Z,60.14
2022-08-08T07:20:45.905Z,58.81
2022-08-08T07:25:54.591Z,56.72
2022-08-08T07:30:59.486Z,55.21
2022-08-08T07:36:02.399Z,53.27
2022-08-08T07:41:25.426Z,53.33
2022-08-08T07:46:36.667Z,51.52
2022-08-08T07:51:53.955Z,50.97
2022-08-08T07:57:11.516Z,50.55
2022-08-08T08:02:38.689Z,48.80
2022-08-08T08:08:07.855Z,48.60
2022-08-08T08:13:42.617Z,48.22
2022-08-08T08:18:58.081Z,48.84
2022-08-08T08:24:03.945Z,47.21
2022-08-08T08:29:06.763Z,46.13
2022-08-08T08:34:09.772Z,45.90
2022-08-08T08:39:17.375Z,45.68
2022-08-08T08:44:28.973Z,45.58
2022-08-08T08:49:34.792Z,44.81
2022-08-08T08:54:39.119Z,44.46
2022-08-08T09:00:01.607Z,44.46
2022-08-08T09:05:13.999Z,45.46
2022-08-08T09:10:33.850Z,45.51
2022-08-08T09:15:40.894Z,45.42
2022-08-08T09:21:57.977Z,44.60
2022-08-08T09:26:32.415Z,45.36
2022-08-08T09:32:05.140Z,44.67
2022-08-08T09:37:51.393Z,43.46
2022-08-08T09:42:44.457Z,43.06
2022-08-08T09:48:12.703Z,41.56
2022-08-08T09:53:32.909Z,40.82
2022-08-08T09:59:20.014Z,39.91
2022-08-08T10:04:41.912Z,37.79
2022-08-08T10:10:00.092Z,36.85
2022-08-08T10:15:17.449Z,36.77
2022-08-08T10:20:27.888Z,34.91
2022-08-08T10:25:57.077Z,35.45
2022-08-08T10:31:41.231Z,36.17
2022-08-08T10:36:45.373Z,36.40
2022-08-08T10:42:15.139Z,35.98
2022-08-08T10:47:20.769Z,37.00
2022-08-08T10:52:42.041Z,37.30
2022-08-08T10:57:53.163Z,37.27
2022-08-08T11:02:57.252Z,36.55
2022-08-08T11:08:30.742Z,38.17
2022-08-08T11:13:59.989Z,38.04
2022-08-08T11:19:18.048Z,37.98
2022-08-08T11:24:36.095Z,37.53
2022-08-08T11:29:58.152Z,37.43
2022-08-08T11:35:27.091Z,37.77
2022-08-08T11:40:53.063Z,37.79
2022-08-08T11:46:14.430Z,36.76
2022-08-08T11:51:38.245Z,35.29
2022-08-08T11:56:43.111Z,35.25
2022-08-08T12:02:05.083Z,36.00
2022-08-08T12:07:16.791Z,36.56
2022-08-08T12:12:28.491Z,36.78
2022-08-08T12:17:44.351Z,35.95
2022-08-08T12:22:54.032Z,36.24
2022-08-08T12:28:15.507Z,35.67
2022-08-08T12:33:18.716Z,36.59
2022-08-08T12:38:30.319Z,36.70
2022-08-08T12:43:47.600Z,35.57
2022-08-08T12:54:29.541Z,35.14
2022-08-08T12:59:44.713Z,35.53
2022-08-08T13:04:49.932Z,36.28
2022-08-08T13:10:05.062Z,36.25
2022-08-08T13:15:16.886Z,36.17
2022-08-08T13:20:22.102Z,34.16
2022-08-08T13:25:24.103Z,35.09
2022-08-08T13:30:28.272Z,33.27
2022-08-08T13:35:38.691Z,32.99
2022-08-08T13:40:46.039Z,34.31
2022-08-08T13:45:48.529Z,35.18
2022-08-08T13:50:55.039Z,34.24
2022-08-08T13:56:11.803Z,33.54
2022-08-08T14:01:18.983Z,33.41
2022-08-08T14:06:33.630Z,33.89
2022-08-08T14:11:38.048Z,33.12
2022-08-08T14:16:49.638Z,33.10
2022-08-08T14:21:54.016Z,33.09
2022-08-08T14:26:56.299Z,32.92
2022-08-08T14:32:09.164Z,34.39
2022-08-08T14:37:17.853Z,35.40
2022-08-08T14:42:37.197Z,36.20
2022-08-08T14:48:01.105Z,35.61
2022-08-08T14:53:06.313Z,35.59
2022-08-08T14:58:12.132Z,36.30
2022-08-08T15:03:18.980Z,37.44
2022-08-08T15:08:22.422Z,36.77
2022-08-08T15:13:40.658Z,33.99
2022-08-08T15:19:01.783Z,34.03
2022-08-08T15:24:04.074Z,35.18
2022-08-08T15:29:12.184Z,36.88
2022-08-08T15:34:18.527Z,36.31
2022-08-08T15:39:38.290Z,35.69
2022-08-08T15:44:42.501Z,34.71
2022-08-08T15:49:44.853Z,34.33
2022-08-08T15:54:51.779Z,34.47
2022-08-08T16:00:05.721Z,35.06
2022-08-08T16:05:17.123Z,34.76
2022-08-08T16:13:05.149Z,34.46
2022-08-08T16:16:18.127Z,34.86
2022-08-08T16:21:26.842Z,35.01
2022-08-08T16:26:46.176Z,35.98
2022-08-08T16:32:13.587Z,37.00
2022-08-08T16:37:47.415Z,38.22
2022-08-08T16:42:54.129Z,39.59
2022-08-08T16:47:56.482Z,40.34
2022-08-08T16:55:03.838Z,39.73
2022-08-08T16:58:34.310Z,39.31
2022-08-08T17:04:00.819Z,39.81
2022-08-08T17:08:58.525Z,40.97
2022-08-08T17:14:01.366Z,42.20
2022-08-08T17:19:03.918Z,43.07
2022-08-08T17:24:10.720Z,43.51
2022-08-08T17:29:33.406Z,44.23
2022-08-08T17:34:59.794Z,44.40
2022-08-08T17:40:06.372Z,43.88
2022-08-08T17:45:23.563Z,43.75
2022-08-08T17:50:26.341Z,43.61
2022-08-08T17:56:06.352Z,44.08
2022-08-08T18:00:54.327Z,44.44
2022-08-08T18:05:59.379Z,45.23
2022-08-08T18:11:03.618Z,46.82
2022-08-08T18:16:06.355Z,48.37
2022-08-08T18:21:10.866Z,50.04
2022-08-08T18:26:30.347Z,51.67
2022-08-08T18:31:32.551Z,53.54
2022-08-08T18:36:35.913Z,55.01
2022-08-08T18:41:58.241Z,57.24
2022-08-08T18:47:14.673Z,59.42
2022-08-08T18:52:18.754Z,60.91
2022-08-08T18:57:25.027Z,62.49
2022-08-08T19:02:32.598Z,63.90
2022-08-08T19:07:55.251Z,64.96
2022-08-08T19:13:04.844Z,66.41
2022-08-08T19:18:30.980Z,67.78
2022-08-08T19:23:35.622Z,68.74
2022-08-08T19:28:37.625Z,69.48
2022-08-08T19:34:04.487Z,70.59
2022-08-08T19:39:05.323Z,71.77
2022-08-08T19:44:12.836Z,72.61
2022-08-08T19:49:28.683Z,73.91
2022-08-08T19:54:39.498Z,74.90
2022-08-08T19:59:43.906Z,75.97
2022-08-08T20:04:46.061Z,76.83
2022-08-08T20:09:56.196Z,77.84
2022-08-08T20:14:59.903Z,78.86
2022-08-08T20:20:02.210Z,79.76
2022-08-08T20:25:04.815Z,80.69
2022-08-08T20:30:53.209Z,81.14
2022-08-08T20:35:59.531Z,81.94
2022-08-08T20:41:12.218Z,82.74
2022-08-08T20:46:25.687Z,84.27
2022-08-08T20:51:32.617Z,84.57
2022-08-08T20:57:17.008Z,85.83
2022-08-08T21:02:06.106Z,86.86
2022-08-08T21:07:15.796Z,88.65
2022-08-08T21:12:18.380Z,90.51
2022-08-08T21:17:27.101Z,91.36
2022-08-08T21:22:29.832Z,92.40
2022-08-08T21:28:05.913Z,93.56
2022-08-08T21:32:54.266Z,94.78
2022-08-08T21:38:04.034Z,95.71
2022-08-08T21:43:33.761Z,97.20
2022-08-08T21:48:51.970Z,98.33
2022-08-08T21:54:27.208Z,98.91
2022-08-08T21:59:16.918Z,99.68
2022-08-08T22:04:24.816Z,99.84
2022-08-08T22:09:40.799Z,100.00
2022-08-08T22:14:43.247Z,100.00
2022-08-08T22:20:12.322Z,100.00
2022-08-08T22:25:12.346Z,100.00
2022-08-08T22:30:29.671Z,100.00
2022-08-08T22:36:04.719Z,100.00
2022-08-08T22:40:54.291Z,100.00
2022-08-08T22:45:57.599Z,100.00
2022-08-08T22:51:00.007Z,100.00
2022-08-08T22:56:09.430Z,100.00
2022-08-08T23:01:16.676Z,100.00
2022-08-08T23:06:34.551Z,100.00
2022-08-08T23:12:28.676Z,100.00
2022-08-08T23:17:00.393Z,100.00
2022-08-08T23:22:08.044Z,100.00
2022-08-08T23:27:17.414Z,100.00
2022-08-08T23:32:34.655Z,100.00
2022-08-08T23:38:00.789Z,100.00
2022-08-08T23:43:02.848Z,100.00
2022-08-08T23:49:08.139Z,100.00
2022-08-08T23:54:05.517Z,100.00
2022-08-08T23:58:50.683Z,100.00
